Aviation Digital Data Service (ADDS)

Output produced by METARs form (0427 UTC 26 May 2018)
found at http://www.aviationweather.gov/adds/metars/
 
VYMD 260330Z 18008G18KT 7000 ST020 FEW120 35/24 Q1006
TAF VYMD 252300Z 2600/2624 14007KT 7000 SCT020 FEW025CB 
     TEMPO 2600/2606 18008G17KT 6000 BKN020 FEW025CB
       
VYYY 260400Z 10008G15KT 8000 BKN015 FEW020CB BKN100 32/28 Q1009
TAF VYYY 252300Z 2600/2624 20005KT 7000 BKN014 FEW025CB BKN140 
     TEMPO 2600/2606 25008KT 5000 RA BKN012 FEW020CB OVC120 
     TEMPO 2606/2609 24008G18KT 4000 +TSRA BKN008 FEW018CB OVC080